createdAt,value
2023-01-28T00:01:50.917Z,35.03
2023-01-28T00:04:19.663Z,33.65
2023-01-28T00:06:48.471Z,23.10
2023-01-28T00:09:17.208Z,27.48
2023-01-28T00:11:45.416Z,29.75
2023-01-28T00:14:13.557Z,26.90
2023-01-28T00:16:41.594Z,28.95
2023-01-28T00:19:09.467Z,31.83
2023-01-28T00:21:37.633Z,35.15
2023-01-28T00:24:07.193Z,37.25
2023-01-28T00:26:35.556Z,33.33
2023-01-28T00:29:03.492Z,34.65
2023-01-28T00:31:31.388Z,33.30
2023-01-28T00:34:01.192Z,33.25
2023-01-28T00:36:29.276Z,30.92
2023-01-28T00:38:59.657Z,36.40
2023-01-28T00:41:30.145Z,37.45
2023-01-28T00:43:59.606Z,32.55
2023-01-28T00:46:28.046Z,33.05
2023-01-28T00:48:56.363Z,36.40
2023-01-28T00:51:24.476Z,36.55
2023-01-28T00:53:52.633Z,38.17
2023-01-28T00:56:21.268Z,43.13
2023-01-28T01:01:23.288Z,32.47
2023-01-28T01:03:57.699Z,34.20
2023-01-28T01:06:26.617Z,38.15
2023-01-28T01:08:55.610Z,33.63
2023-01-28T01:11:24.985Z,31.23
2023-01-28T01:13:58.740Z,38.00
2023-01-28T01:16:33.323Z,31.90
2023-01-28T01:19:01.362Z,27.77
2023-01-28T01:21:30.905Z,34.53
2023-01-28T01:23:58.492Z,32.78
2023-01-28T01:26:30.080Z,34.78
2023-01-28T01:28:58.458Z,29.30
2023-01-28T01:31:26.306Z,31.83
2023-01-28T01:33:53.830Z,31.23
2023-01-28T01:36:22.324Z,34.47
2023-01-28T01:38:55.367Z,35.35
2023-01-28T01:41:31.171Z,31.15
2023-01-28T01:44:05.927Z,34.15
2023-01-28T01:46:41.350Z,32.55
2023-01-28T01:49:28.800Z,33.38
2023-01-28T01:52:10.852Z,26.13
2023-01-28T01:54:42.668Z,31.77
2023-01-28T01:57:16.153Z,32.50
2023-01-28T02:00:07.613Z,34.45
2023-01-28T02:02:47.764Z,34.38
2023-01-28T02:05:21.316Z,33.83
2023-01-28T02:08:20.979Z,36.30
2023-01-28T02:11:02.366Z,33.88
2023-01-28T02:13:57.169Z,33.58
2023-01-28T02:16:26.248Z,37.90
2023-01-28T02:18:54.121Z,34.05
2023-01-28T02:21:26.892Z,30.63
2023-01-28T02:24:33.650Z,39.03
2023-01-28T02:27:37.876Z,39.33
2023-01-28T02:30:25.220Z,37.65
2023-01-28T02:33:04.466Z,39.25
2023-01-28T02:35:39.638Z,35.22
2023-01-28T02:38:17.283Z,40.20
2023-01-28T02:41:02.549Z,39.67
2023-01-28T02:43:43.401Z,36.95
2023-01-28T02:46:44.519Z,41.85
2023-01-28T02:49:42.992Z,36.30
2023-01-28T02:52:55.668Z,39.17
2023-01-28T02:56:29.496Z,44.72
2023-01-28T02:59:31.309Z,36.17
2023-01-28T03:02:25.881Z,37.30
2023-01-28T03:05:30.903Z,42.92
2023-01-28T03:07:59.120Z,41.35
2023-01-28T03:10:28.684Z,40.78
2023-01-28T03:13:17.152Z,42.17
2023-01-28T03:16:07.430Z,33.67
2023-01-28T03:19:06.367Z,37.00
2023-01-28T03:22:03.489Z,47.72
2023-01-28T03:25:06.648Z,42.33
2023-01-28T03:28:22.096Z,44.45
2023-01-28T03:31:39.277Z,37.53
2023-01-28T03:34:28.548Z,38.58
2023-01-28T03:36:56.860Z,35.75
2023-01-28T03:39:33.690Z,38.70
2023-01-28T03:42:07.111Z,38.38
2023-01-28T03:44:56.064Z,38.25
2023-01-28T03:47:30.544Z,41.50
2023-01-28T03:50:02.343Z,35.53
2023-01-28T03:52:35.428Z,39.50
2023-01-28T03:55:21.017Z,36.72
2023-01-28T03:57:48.561Z,41.03
2023-01-28T04:00:20.253Z,38.58
2023-01-28T04:02:48.002Z,32.10
2023-01-28T04:05:20.294Z,31.23
2023-01-28T04:07:54.681Z,35.15
2023-01-28T04:10:41.671Z,29.30
2023-01-28T04:13:14.797Z,33.58
2023-01-28T04:15:43.584Z,33.55
2023-01-28T04:18:12.178Z,31.95
2023-01-28T04:20:40.793Z,34.23
2023-01-28T04:23:08.823Z,34.60
2023-01-28T04:25:36.808Z,37.78
2023-01-28T04:28:08.524Z,38.33
2023-01-28T04:30:36.532Z,27.42
2023-01-28T04:33:23.142Z,33.90
2023-01-28T04:36:03.183Z,29.83
2023-01-28T04:38:54.227Z,29.42
2023-01-28T04:41:37.147Z,34.75
2023-01-28T04:44:11.153Z,35.85
2023-01-28T04:46:53.854Z,27.13
2023-01-28T04:49:35.536Z,27.55
2023-01-28T04:52:38.792Z,29.25
2023-01-28T04:55:16.988Z,29.80
2023-01-28T04:57:48.768Z,30.50
2023-01-28T05:00:17.409Z,29.13
2023-01-28T05:02:45.251Z,30.63
2023-01-28T05:05:13.214Z,29.13
2023-01-28T05:08:01.558Z,30.85
2023-01-28T05:10:30.006Z,31.83
2023-01-28T05:12:58.976Z,31.02
2023-01-28T05:15:26.609Z,29.40
2023-01-28T05:18:00.065Z,34.28
2023-01-28T05:20:33.931Z,35.45
2023-01-28T05:23:03.556Z,31.60
2023-01-28T05:25:43.394Z,28.35
2023-01-28T05:28:11.333Z,31.30
2023-01-28T05:30:39.726Z,29.10
2023-01-28T05:33:07.523Z,32.73
2023-01-28T05:35:36.461Z,30.17
2023-01-28T05:38:04.337Z,32.67
2023-01-28T05:40:32.654Z,32.55
2023-01-28T05:43:00.828Z,35.10
2023-01-28T05:45:54.602Z,34.90
2023-01-28T05:48:28.207Z,32.05
2023-01-28T05:51:19.059Z,33.63
2023-01-28T05:53:54.710Z,29.73
2023-01-28T05:56:23.545Z,40.55
2023-01-28T05:58:51.327Z,35.00
2023-01-28T06:01:20.596Z,30.35
2023-01-28T06:03:53.696Z,39.55
2023-01-28T06:06:21.917Z,36.63
2023-01-28T06:08:49.667Z,36.78
2023-01-28T06:11:23.579Z,35.22
2023-01-28T06:13:54.567Z,32.47
2023-01-28T06:16:40.710Z,35.25
2023-01-28T06:19:32.812Z,35.90
2023-01-28T06:22:00.422Z,36.38
2023-01-28T06:24:28.232Z,38.38
2023-01-28T06:26:55.846Z,36.90
2023-01-28T06:29:23.875Z,46.33
2023-01-28T06:31:51.349Z,45.38
2023-01-28T06:34:19.234Z,44.88
2023-01-28T06:36:46.679Z,40.40
2023-01-28T06:39:14.842Z,46.17
2023-01-28T06:41:42.481Z,42.47
2023-01-28T06:44:10.258Z,39.28
2023-01-28T06:46:37.797Z,39.85
2023-01-28T06:49:05.571Z,39.70
2023-01-28T06:51:33.054Z,37.67
2023-01-28T06:54:01.413Z,43.28
2023-01-28T06:56:28.842Z,46.60
2023-01-28T06:58:56.757Z,50.13
2023-01-28T07:01:24.415Z,43.03
2023-01-28T07:03:52.200Z,43.55
2023-01-28T07:06:19.742Z,43.58
2023-01-28T07:08:48.281Z,42.20
2023-01-28T07:11:16.578Z,44.75
2023-01-28T07:13:44.991Z,43.83
2023-01-28T07:16:12.437Z,37.83
2023-01-28T07:18:40.173Z,42.85
2023-01-28T07:21:07.685Z,42.53
2023-01-28T07:23:35.571Z,44.15
2023-01-28T07:26:04.633Z,34.30
2023-01-28T07:28:32.918Z,47.47
2023-01-28T07:31:00.604Z,43.58
2023-01-28T07:33:28.578Z,57.15
2023-01-28T07:35:56.092Z,47.53
2023-01-28T07:38:23.773Z,47.42
2023-01-28T07:40:51.750Z,55.35
2023-01-28T07:43:20.362Z,51.78
2023-01-28T07:45:50.799Z,47.35
2023-01-28T07:48:18.680Z,49.75
2023-01-28T07:50:48.651Z,48.85
2023-01-28T07:53:17.734Z,53.85
2023-01-28T07:55:45.333Z,54.30
2023-01-28T07:58:13.175Z,63.33
2023-01-28T08:00:40.715Z,51.40
2023-01-28T08:03:16.925Z,57.78
2023-01-28T08:05:51.866Z,60.60
2023-01-28T08:08:20.078Z,56.40
2023-01-28T08:10:48.381Z,55.28
2023-01-28T08:13:17.871Z,51.47
2023-01-28T08:15:46.970Z,60.20
2023-01-28T08:18:17.236Z,52.10
2023-01-28T08:20:47.302Z,54.00
2023-01-28T08:23:17.487Z,54.13
2023-01-28T08:25:46.157Z,57.05
2023-01-28T08:28:16.087Z,59.25
2023-01-28T08:30:44.134Z,49.92
2023-01-28T08:33:15.451Z,62.22
2023-01-28T08:35:43.208Z,60.83
2023-01-28T08:38:13.555Z,57.42
2023-01-28T08:40:41.358Z,55.25
2023-01-28T08:43:09.612Z,54.20
2023-01-28T08:45:37.154Z,52.97
2023-01-28T08:48:07.980Z,45.95
2023-01-28T08:50:38.868Z,60.60
2023-01-28T08:53:13.719Z,53.03
2023-01-28T08:55:41.758Z,55.50
2023-01-28T08:58:17.524Z,60.05
2023-01-28T09:00:46.336Z,57.22
2023-01-28T09:03:14.143Z,53.25
2023-01-28T09:05:42.334Z,47.17
2023-01-28T09:08:14.614Z,47.13
2023-01-28T09:10:43.052Z,54.67
2023-01-28T09:13:14.993Z,47.33
2023-01-28T09:15:43.075Z,57.30
2023-01-28T09:18:11.802Z,47.17
2023-01-28T09:20:40.029Z,46.80
2023-01-28T09:23:08.655Z,45.42
2023-01-28T09:25:37.558Z,47.70
2023-01-28T09:28:07.526Z,44.47
2023-01-28T09:30:37.385Z,44.72
2023-01-28T09:33:06.783Z,45.47
2023-01-28T09:35:35.351Z,47.13
2023-01-28T09:38:03.892Z,55.55
2023-01-28T09:40:42.291Z,48.30
2023-01-28T09:43:59.758Z,51.70
2023-01-28T09:46:38.999Z,43.55
2023-01-28T09:49:33.078Z,50.97
2023-01-28T09:52:01.893Z,48.20
2023-01-28T09:54:44.128Z,50.58
2023-01-28T09:57:25.845Z,51.83
2023-01-28T09:59:53.895Z,58.72
2023-01-28T10:02:23.994Z,45.95
2023-01-28T10:05:40.957Z,53.53
2023-01-28T10:08:46.958Z,52.28
2023-01-28T10:12:11.097Z,46.72
2023-01-28T10:14:53.928Z,49.15
2023-01-28T10:17:37.912Z,54.22
2023-01-28T10:20:19.357Z,55.40
2023-01-28T10:23:12.630Z,49.50
2023-01-28T10:25:45.172Z,55.42
2023-01-28T10:28:25.590Z,53.63
2023-01-28T10:30:53.686Z,54.83
2023-01-28T10:33:40.083Z,58.00
2023-01-28T10:36:09.473Z,58.65
2023-01-28T10:38:37.763Z,59.17
2023-01-28T10:41:08.741Z,58.38
2023-01-28T10:43:41.845Z,56.80
2023-01-28T10:46:33.889Z,60.05
2023-01-28T10:49:18.993Z,63.72
2023-01-28T10:51:46.776Z,66.95
2023-01-28T10:54:27.227Z,65.97
2023-01-28T10:57:19.097Z,62.33
2023-01-28T10:59:49.819Z,61.95
2023-01-28T11:02:36.585Z,68.03
2023-01-28T11:05:17.729Z,72.57
2023-01-28T11:07:45.777Z,72.15
2023-01-28T11:10:34.734Z,71.60
2023-01-28T11:13:05.458Z,47.70
2023-01-28T11:15:34.057Z,72.68
2023-01-28T11:18:08.462Z,73.47
2023-01-28T11:20:49.632Z,69.65
2023-01-28T11:23:34.305Z,71.60
2023-01-28T11:26:37.584Z,76.45
2023-01-28T11:29:06.044Z,74.50
2023-01-28T11:31:44.114Z,71.28
2023-01-28T11:34:19.765Z,74.97
2023-01-28T11:36:53.973Z,75.65
2023-01-28T11:39:27.644Z,79.10
2023-01-28T11:42:04.027Z,77.70
2023-01-28T11:44:31.643Z,78.57
2023-01-28T11:47:17.679Z,78.65
2023-01-28T11:50:25.866Z,74.70
2023-01-28T11:53:06.791Z,71.75
2023-01-28T11:56:06.555Z,74.90
2023-01-28T11:59:03.752Z,71.47
2023-01-28T12:02:21.532Z,81.82
2023-01-28T12:05:42.638Z,79.20
2023-01-28T12:08:25.066Z,81.95
2023-01-28T12:11:17.725Z,86.63
2023-01-28T12:13:53.577Z,80.25
2023-01-28T12:16:41.716Z,68.85
2023-01-28T12:19:23.852Z,93.40
2023-01-28T12:22:09.795Z,74.53
2023-01-28T12:25:03.571Z,84.28
2023-01-28T12:28:01.612Z,78.18
2023-01-28T12:31:25.769Z,85.68
2023-01-28T12:34:18.892Z,83.18
2023-01-28T12:36:54.790Z,87.75
2023-01-28T12:39:58.816Z,74.30
2023-01-28T12:42:38.152Z,92.28
2023-01-28T12:45:12.037Z,78.30
2023-01-28T12:47:43.673Z,87.10
2023-01-28T12:50:37.844Z,86.45
2023-01-28T12:53:49.180Z,89.05
2023-01-28T12:56:22.789Z,90.88
2023-01-28T12:58:56.789Z,82.10
2023-01-28T13:01:43.135Z,83.40
2023-01-28T13:04:33.670Z,80.00
2023-01-28T13:07:41.286Z,84.80
2023-01-28T13:10:38.705Z,94.30
2023-01-28T13:13:08.024Z,75.93
2023-01-28T13:15:40.772Z,95.45
2023-01-28T13:18:48.537Z,84.90
2023-01-28T13:21:27.829Z,90.80
2023-01-28T13:24:19.990Z,79.22
2023-01-28T13:26:56.648Z,88.45
2023-01-28T13:29:34.310Z,87.00
2023-01-28T13:32:23.624Z,41.65
2023-01-28T13:35:02.146Z,94.20
2023-01-28T13:37:43.915Z,97.57
2023-01-28T13:40:14.941Z,91.75
2023-01-28T13:42:42.925Z,97.35
2023-01-28T13:45:16.957Z,92.32
2023-01-28T13:47:49.154Z,90.97
2023-01-28T13:50:23.227Z,96.20
2023-01-28T13:53:43.183Z,94.45
2023-01-28T13:56:25.986Z,90.45
2023-01-28T13:59:02.465Z,89.68
2023-01-28T14:02:05.539Z,96.05
2023-01-28T14:04:45.021Z,101.10
2023-01-28T14:07:43.386Z,83.45
2023-01-28T14:10:59.602Z,78.32
2023-01-28T14:13:44.879Z,79.10
2023-01-28T14:16:52.347Z,79.10
2023-01-28T14:19:28.464Z,84.63
2023-01-28T14:21:57.001Z,83.22
2023-01-28T14:24:26.095Z,92.03
2023-01-28T14:26:58.617Z,90.40
2023-01-28T14:29:59.186Z,79.32
2023-01-28T14:32:31.733Z,86.28
2023-01-28T14:35:09.420Z,85.13
2023-01-28T14:37:38.839Z,85.40
2023-01-28T14:40:16.877Z,85.78
2023-01-28T14:42:52.548Z,83.75
2023-01-28T14:45:57.983Z,82.43
2023-01-28T14:49:08.422Z,84.28
2023-01-28T14:52:02.688Z,92.40
2023-01-28T14:55:14.815Z,92.50
2023-01-28T14:58:16.813Z,91.93
2023-01-28T15:00:55.823Z,92.53
2023-01-28T15:03:25.491Z,88.55
2023-01-28T15:06:25.392Z,90.63
2023-01-28T15:11:26.107Z,82.15
2023-01-28T15:13:59.600Z,82.57
2023-01-28T15:16:35.015Z,75.50
2023-01-28T15:19:03.029Z,71.60
2023-01-28T15:21:31.205Z,71.20
2023-01-28T15:24:01.394Z,78.43
2023-01-28T15:26:34.724Z,84.45
2023-01-28T15:29:02.822Z,74.65
2023-01-28T15:31:34.618Z,78.63
2023-01-28T15:34:16.633Z,72.45
2023-01-28T15:36:44.899Z,75.25
2023-01-28T15:39:23.462Z,72.97
2023-01-28T15:42:03.252Z,78.97
2023-01-28T15:44:46.552Z,80.32
2023-01-28T15:47:43.033Z,83.68
2023-01-28T15:50:21.271Z,75.70
2023-01-28T15:52:49.529Z,75.25
2023-01-28T15:55:41.766Z,79.67
2023-01-28T15:58:26.481Z,84.22
2023-01-28T16:01:09.174Z,71.85
2023-01-28T16:03:40.106Z,68.95
2023-01-28T16:06:23.877Z,81.03
2023-01-28T16:09:02.643Z,78.47
2023-01-28T16:11:45.029Z,82.93
2023-01-28T16:14:54.386Z,83.40
2023-01-28T16:17:36.169Z,78.35
2023-01-28T16:20:19.407Z,78.18
2023-01-28T16:22:47.599Z,81.28
2023-01-28T16:25:24.182Z,84.30
2023-01-28T16:27:52.426Z,82.93
2023-01-28T16:30:20.080Z,81.82
2023-01-28T16:32:48.613Z,88.13
2023-01-28T16:35:23.519Z,84.43
2023-01-28T16:37:51.811Z,82.43
2023-01-28T16:40:23.209Z,76.78
2023-01-28T16:42:55.761Z,79.55
2023-01-28T16:45:25.394Z,84.82
2023-01-28T16:47:53.796Z,90.45
2023-01-28T16:50:23.132Z,84.03
2023-01-28T16:52:54.040Z,76.10
2023-01-28T16:55:23.297Z,86.50
2023-01-28T16:57:55.732Z,87.07
2023-01-28T17:00:26.332Z,85.10
2023-01-28T17:02:55.178Z,84.28
2023-01-28T17:05:23.608Z,87.88
2023-01-28T17:07:55.173Z,77.43
2023-01-28T17:12:50.964Z,85.78
2023-01-28T17:15:19.370Z,75.82
2023-01-28T17:17:53.011Z,84.72
2023-01-28T17:20:20.661Z,85.43
2023-01-28T17:22:48.633Z,83.45
2023-01-28T17:25:16.955Z,88.22
2023-01-28T17:27:45.164Z,95.15
2023-01-28T17:30:13.767Z,68.05
2023-01-28T17:32:41.678Z,74.80
2023-01-28T17:35:10.591Z,77.85
2023-01-28T17:37:38.439Z,75.65
2023-01-28T17:40:06.773Z,93.13
2023-01-28T17:42:34.531Z,90.80
2023-01-28T17:45:03.237Z,86.30
2023-01-28T17:47:31.794Z,84.07
2023-01-28T17:49:59.403Z,86.82
2023-01-28T17:52:27.337Z,66.32
2023-01-28T17:54:54.784Z,83.72
2023-01-28T17:57:23.148Z,74.88
2023-01-28T17:59:50.606Z,54.08
2023-01-28T18:02:18.540Z,79.07
2023-01-28T18:04:46.050Z,78.25
2023-01-28T18:07:13.967Z,76.10
2023-01-28T18:09:44.047Z,79.78
2023-01-28T18:12:15.874Z,80.63
2023-01-28T18:14:43.450Z,83.57
2023-01-28T18:17:11.781Z,83.50
2023-01-28T18:19:40.455Z,87.88
2023-01-28T18:22:08.902Z,84.30
2023-01-28T18:24:36.597Z,79.70
2023-01-28T18:27:04.593Z,81.18
2023-01-28T18:29:32.816Z,78.35
2023-01-28T18:32:00.967Z,76.45
2023-01-28T18:34:31.717Z,83.13
2023-01-28T18:36:59.802Z,81.68
2023-01-28T18:39:30.369Z,87.85
2023-01-28T18:41:59.529Z,87.70
2023-01-28T18:44:30.207Z,65.00
2023-01-28T18:46:58.149Z,84.72
2023-01-28T18:49:25.728Z,80.40
2023-01-28T18:51:54.164Z,79.82
2023-01-28T18:54:21.846Z,92.40
2023-01-28T18:56:50.067Z,85.97
2023-01-28T18:59:17.687Z,83.47
2023-01-28T19:01:47.935Z,82.32
2023-01-28T19:04:16.547Z,82.10
2023-01-28T19:06:45.199Z,88.82
2023-01-28T19:09:15.865Z,77.97
2023-01-28T19:11:44.943Z,78.40
2023-01-28T19:14:14.406Z,79.70
2023-01-28T19:16:42.781Z,85.10
2023-01-28T19:19:10.853Z,82.93
2023-01-28T19:21:38.736Z,70.88
2023-01-28T19:24:09.839Z,74.45
2023-01-28T19:26:39.348Z,76.68
2023-01-28T19:29:09.835Z,84.20
2023-01-28T19:31:39.215Z,78.40
2023-01-28T19:34:07.257Z,72.78
2023-01-28T19:36:35.739Z,78.30
2023-01-28T19:39:07.678Z,75.80
2023-01-28T19:41:37.316Z,78.07
2023-01-28T19:44:06.336Z,71.10
2023-01-28T19:49:09.249Z,73.32
2023-01-28T19:51:37.334Z,79.38
2023-01-28T19:54:05.120Z,87.22
2023-01-28T19:56:36.935Z,73.63
2023-01-28T19:59:04.855Z,79.68
2023-01-28T20:01:32.729Z,63.92
2023-01-28T20:04:02.089Z,75.63
2023-01-28T20:06:31.772Z,66.97
2023-01-28T20:11:38.522Z,74.32
2023-01-28T20:14:06.127Z,70.63
2023-01-28T20:16:37.074Z,76.47
2023-01-28T20:19:09.576Z,69.65
2023-01-28T20:21:45.503Z,75.25
2023-01-28T20:24:20.428Z,79.20
2023-01-28T20:26:55.282Z,73.10
2023-01-28T20:29:33.374Z,77.70
2023-01-28T20:32:17.756Z,77.25
2023-01-28T20:34:58.909Z,75.72
2023-01-28T20:37:35.485Z,74.28
2023-01-28T20:40:11.506Z,75.03
2023-01-28T20:42:48.174Z,78.50
2023-01-28T20:48:19.199Z,73.05
2023-01-28T20:50:58.895Z,77.25
2023-01-28T20:56:27.093Z,79.97
2023-01-28T20:59:11.018Z,81.15
2023-01-28T21:01:48.723Z,78.03
2023-01-28T21:04:54.911Z,73.80
2023-01-28T21:07:35.176Z,77.55
2023-01-28T21:10:20.717Z,77.18
2023-01-28T21:12:56.616Z,73.35
2023-01-28T21:15:35.745Z,69.47
2023-01-28T21:18:18.568Z,71.57
2023-01-28T21:21:06.763Z,69.70
2023-01-28T21:23:45.614Z,87.53
2023-01-28T21:26:27.385Z,77.38
2023-01-28T21:29:08.940Z,71.70
2023-01-28T21:31:47.148Z,73.60
2023-01-28T21:34:25.195Z,77.68
2023-01-28T21:36:57.237Z,68.40
2023-01-28T21:39:25.634Z,69.07
2023-01-28T21:42:04.598Z,70.80
2023-01-28T21:44:48.422Z,74.63
2023-01-28T21:47:29.102Z,76.32
2023-01-28T21:50:11.501Z,82.68
2023-01-28T21:52:56.436Z,71.75
2023-01-28T21:55:45.807Z,76.07
2023-01-28T21:58:47.654Z,64.47
2023-01-28T22:01:27.965Z,70.47
2023-01-28T22:04:08.918Z,71.88
2023-01-28T22:06:51.066Z,75.88
2023-01-28T22:09:29.308Z,71.43
2023-01-28T22:12:11.294Z,72.85
2023-01-28T22:14:45.527Z,70.50
2023-01-28T22:17:34.505Z,71.43
2023-01-28T22:20:11.936Z,58.15
2023-01-28T22:22:47.222Z,74.18
2023-01-28T22:25:28.327Z,73.32
2023-01-28T22:28:03.914Z,75.07
2023-01-28T22:30:38.808Z,75.55
2023-01-28T22:33:18.138Z,67.90
2023-01-28T22:38:41.834Z,61.72
2023-01-28T22:41:25.170Z,68.28
2023-01-28T22:43:59.202Z,66.15
2023-01-28T22:46:43.251Z,72.43
2023-01-28T22:49:23.561Z,68.00
2023-01-28T22:52:02.113Z,70.68
2023-01-28T22:54:32.413Z,70.18
2023-01-28T22:57:01.637Z,64.55
2023-01-28T22:59:29.268Z,69.38
2023-01-28T23:01:58.364Z,70.93
2023-01-28T23:04:29.707Z,59.70
2023-01-28T23:07:00.408Z,64.90
2023-01-28T23:09:28.539Z,72.68
2023-01-28T23:11:56.646Z,68.22
2023-01-28T23:14:42.754Z,66.85
2023-01-28T23:17:29.242Z,69.88
2023-01-28T23:20:16.097Z,62.58
2023-01-28T23:23:02.695Z,68.32
2023-01-28T23:25:30.353Z,66.60
2023-01-28T23:27:58.111Z,66.25
2023-01-28T23:30:25.649Z,69.00
2023-01-28T23:32:58.267Z,66.35
2023-01-28T23:35:27.658Z,64.65
2023-01-28T23:37:56.348Z,65.97
2023-01-28T23:40:24.726Z,72.47
2023-01-28T23:42:53.340Z,73.10
2023-01-28T23:45:22.363Z,73.85
2023-01-28T23:47:50.693Z,59.40
2023-01-28T23:50:18.815Z,70.97
2023-01-28T23:52:46.773Z,77.22
2023-01-28T23:55:16.098Z,67.65
2023-01-28T23:57:43.948Z,65.85
